sensor_id;sensor_type;location;lat;lon;timestamp;pressure;altitude;pressure_sealevel;temperature;humidity
52927;BME280;40783;49.710;8.842;2022-10-31T00:00:59;99521.16;;;12.11;100.00
52927;BME280;40783;49.710;8.842;2022-10-31T00:03:28;99520.84;;;12.14;100.00
52927;BME280;40783;49.710;8.842;2022-10-31T00:05:54;99518.44;;;12.02;100.00
52927;BME280;40783;49.710;8.842;2022-10-31T00:08:19;99526.09;;;12.24;100.00
52927;BME280;40783;49.710;8.842;2022-10-31T00:10:44;99519.16;;;12.13;100.00
52927;BME280;40783;49.710;8.842;2022-10-31T00:13:10;99519.84;;;12.15;100.00
52927;BME280;40783;49.710;8.842;2022-10-31T00:15:36;99522.84;;;12.12;100.00
52927;BME280;40783;49.710;8.842;2022-10-31T00:18:06;99527.91;;;12.15;100.00
52927;BME280;40783;49.710;8.842;2022-10-31T00:20:34;99529.66;;;12.06;100.00
52927;BME280;40783;49.710;8.842;2022-10-31T00:23:00;99528.66;;;12.07;100.00
52927;BME280;40783;49.710;8.842;2022-10-31T00:25:26;99518.31;;;12.12;100.00
52927;BME280;40783;49.710;8.842;2022-10-31T00:27:52;99521.81;;;12.05;100.00
52927;BME280;40783;49.710;8.842;2022-10-31T00:30:17;99520.44;;;12.00;100.00
52927;BME280;40783;49.710;8.842;2022-10-31T00:32:42;99521.03;;;11.94;100.00
52927;BME280;40783;49.710;8.842;2022-10-31T00:35:09;99515.31;;;11.89;100.00
52927;BME280;40783;49.710;8.842;2022-10-31T00:37:37;99512.63;;;11.89;100.00
52927;BME280;40783;49.710;8.842;2022-10-31T00:40:04;99520.66;;;11.89;100.00
52927;BME280;40783;49.710;8.842;2022-10-31T00:42:30;99522.94;;;12.02;100.00
52927;BME280;40783;49.710;8.842;2022-10-31T00:44:55;99527.22;;;12.13;100.00
52927;BME280;40783;49.710;8.842;2022-10-31T00:47:20;99523.22;;;12.25;100.00
52927;BME280;40783;49.710;8.842;2022-10-31T00:49:45;99516.13;;;12.08;100.00
52927;BME280;40783;49.710;8.842;2022-10-31T00:52:10;99522.16;;;12.10;100.00
52927;BME280;40783;49.710;8.842;2022-10-31T00:54:38;99528.84;;;12.06;100.00
52927;BME280;40783;49.710;8.842;2022-10-31T00:57:03;99531.88;;;12.11;100.00
52927;BME280;40783;49.710;8.842;2022-10-31T00:59:28;99526.91;;;11.71;100.00
52927;BME280;40783;49.710;8.842;2022-10-31T01:01:53;99532.25;;;11.71;100.00
52927;BME280;40783;49.710;8.842;2022-10-31T01:04:18;99529.94;;;11.77;100.00
52927;BME280;40783;49.710;8.842;2022-10-31T01:06:46;99523.34;;;11.89;100.00
52927;BME280;40783;49.710;8.842;2022-10-31T01:09:11;99537.53;;;11.81;100.00
52927;BME280;40783;49.710;8.842;2022-10-31T01:11:36;99537.63;;;11.71;100.00
52927;BME280;40783;49.710;8.842;2022-10-31T01:14:01;99532.25;;;11.71;100.00
52927;BME280;40783;49.710;8.842;2022-10-31T01:16:27;99540.47;;;11.70;100.00
52927;BME280;40783;49.710;8.842;2022-10-31T01:18:52;99532.94;;;11.73;100.00
52927;BME280;40783;49.710;8.842;2022-10-31T01:21:19;99542.97;;;11.71;100.00
52927;BME280;40783;49.710;8.842;2022-10-31T01:23:44;99546.03;;;11.77;100.00
52927;BME280;40783;49.710;8.842;2022-10-31T01:28:43;99545.34;;;11.75;100.00
52927;BME280;40783;49.710;8.842;2022-10-31T01:31:08;99537.84;;;11.78;100.00
52927;BME280;40783;49.710;8.842;2022-10-31T01:33:34;99547.41;;;11.81;100.00
52927;BME280;40783;49.710;8.842;2022-10-31T01:36:10;99543.41;;;11.85;100.00
52927;BME280;40783;49.710;8.842;2022-10-31T01:38:36;99548.00;;;11.75;100.00
52927;BME280;40783;49.710;8.842;2022-10-31T01:41:01;99551.31;;;11.86;100.00
52927;BME280;40783;49.710;8.842;2022-10-31T01:43:41;99546.03;;;11.77;100.00
52927;BME280;40783;49.710;8.842;2022-10-31T01:46:09;99543.41;;;11.85;100.00
52927;BME280;40783;49.710;8.842;2022-10-31T01:48:38;99544.03;;;11.79;100.00
52927;BME280;40783;49.710;8.842;2022-10-31T01:51:06;99540.03;;;11.83;100.00
52927;BME280;40783;49.710;8.842;2022-10-31T01:53:33;99548.00;;;11.75;100.00
52927;BME280;40783;49.710;8.842;2022-10-31T01:56:00;99543.03;;;11.80;100.00
52927;BME280;40783;49.710;8.842;2022-10-31T01:58:26;99546.78;;;11.87;100.00
52927;BME280;40783;49.710;8.842;2022-10-31T02:00:56;99543.09;;;11.88;100.00
52927;BME280;40783;49.710;8.842;2022-10-31T02:03:25;99544.16;;;11.95;100.00
52927;BME280;40783;49.710;8.842;2022-10-31T02:05:51;99537.09;;;11.94;100.00
52927;BME280;40783;49.710;8.842;2022-10-31T02:10:43;99541.09;;;11.90;100.00
52927;BME280;40783;49.710;8.842;2022-10-31T02:13:09;99540.34;;;11.80;100.00
52927;BME280;40783;49.710;8.842;2022-10-31T02:15:34;99540.34;;;11.80;100.00
52927;BME280;40783;49.710;8.842;2022-10-31T02:18:00;99524.69;;;11.67;100.00
52927;BME280;40783;49.710;8.842;2022-10-31T02:20:27;99528.88;;;11.69;100.00
52927;BME280;40783;49.710;8.842;2022-10-31T02:33:20;99535.38;;;11.85;100.00
52927;BME280;40783;49.710;8.842;2022-10-31T02:35:57;99533.63;;;11.76;100.00
52927;BME280;40783;49.710;8.842;2022-10-31T02:38:31;99533.31;;;11.79;100.00
52927;BME280;40783;49.710;8.842;2022-10-31T02:46:45;99516.56;;;11.77;100.00
52927;BME280;40783;49.710;8.842;2022-10-31T02:49:28;99519.72;;;11.72;100.00
52927;BME280;40783;49.710;8.842;2022-10-31T02:52:00;99516.47;;;11.60;100.00
52927;BME280;40783;49.710;8.842;2022-10-31T02:54:26;99523.53;;;11.69;100.00
52927;BME280;40783;49.710;8.842;2022-10-31T02:56:56;99516.47;;;11.60;100.00
52927;BME280;40783;49.710;8.842;2022-10-31T02:59:26;99515.25;;;11.81;100.00
52927;BME280;40783;49.710;8.842;2022-10-31T03:06:50;99513.78;;;11.60;100.00
52927;BME280;40783;49.710;8.842;2022-10-31T03:09:23;99518.06;;;11.53;100.00
52927;BME280;40783;49.710;8.842;2022-10-31T03:14:22;99520.59;;;11.36;100.00
52927;BME280;40783;49.710;8.842;2022-10-31T03:16:49;99518.22;;;11.33;100.00
52927;BME280;40783;49.710;8.842;2022-10-31T03:19:29;99517.25;;;11.34;100.00
52927;BME280;40783;49.710;8.842;2022-10-31T03:22:06;99513.19;;;11.30;100.00
52927;BME280;40783;49.710;8.842;2022-10-31T03:24:35;99515.19;;;11.28;100.00
52927;BME280;40783;49.710;8.842;2022-10-31T03:27:02;99521.81;;;11.24;100.00
52927;BME280;40783;49.710;8.842;2022-10-31T03:29:30;99522.69;;;11.24;100.00
52927;BME280;40783;49.710;8.842;2022-10-31T03:32:00;99516.78;;;11.21;100.00
52927;BME280;40783;49.710;8.842;2022-10-31T03:34:29;99519.16;;;11.24;100.00
52927;BME280;40783;49.710;8.842;2022-10-31T03:36:55;99520.16;;;11.23;100.00
52927;BME280;40783;49.710;8.842;2022-10-31T03:39:24;99520.31;;;11.21;100.00
52927;BME280;40783;49.710;8.842;2022-10-31T03:41:54;99517.00;;;11.46;100.00
52927;BME280;40783;49.710;8.842;2022-10-31T03:44:21;99509.41;;;11.59;100.00
52927;BME280;40783;49.710;8.842;2022-10-31T03:46:47;99512.31;;;11.66;100.00
52927;BME280;40783;49.710;8.842;2022-10-31T03:49:15;99507.97;;;11.47;100.00
52927;BME280;40783;49.710;8.842;2022-10-31T03:54:12;99511.81;;;11.26;100.00
52927;BME280;40783;49.710;8.842;2022-10-31T03:56:52;99510.88;;;11.35;100.00
52927;BME280;40783;49.710;8.842;2022-10-31T03:59:23;99511.19;;;11.32;100.00
52927;BME280;40783;49.710;8.842;2022-10-31T04:01:51;99508.13;;;11.27;100.00
52927;BME280;40783;49.710;8.842;2022-10-31T04:04:18;99509.81;;;11.28;100.00
52927;BME280;40783;49.710;8.842;2022-10-31T04:06:46;99514.03;;;11.31;100.00
52927;BME280;40783;49.710;8.842;2022-10-31T04:09:14;99508.91;;;11.19;100.00
52927;BME280;40783;49.710;8.842;2022-10-31T04:11:47;99514.72;;;11.14;100.00
52927;BME280;40783;49.710;8.842;2022-10-31T04:14:14;99509.44;;;11.23;100.00
52927;BME280;40783;49.710;8.842;2022-10-31T04:16:42;99513.78;;;11.24;100.00
52927;BME280;40783;49.710;8.842;2022-10-31T04:19:08;99508.31;;;11.25;100.00
52927;BME280;40783;49.710;8.842;2022-10-31T04:21:33;99509.22;;;11.34;100.00
52927;BME280;40783;49.710;8.842;2022-10-31T04:23:59;99500.53;;;11.58;100.00
52927;BME280;40783;49.710;8.842;2022-10-31T04:26:26;99498.22;;;11.64;100.00
52927;BME280;40783;49.710;8.842;2022-10-31T04:28:54;99501.31;;;11.51;100.00
52927;BME280;40783;49.710;8.842;2022-10-31T04:31:19;99497.88;;;11.40;100.00
52927;BME280;40783;49.710;8.842;2022-10-31T04:33:44;99502.78;;;11.27;100.00
52927;BME280;40783;49.710;8.842;2022-10-31T04:36:10;99488.41;;;11.28;100.00
52927;BME280;40783;49.710;8.842;2022-10-31T04:38:35;99484.41;;;11.32;100.00
52927;BME280;40783;49.710;8.842;2022-10-31T04:41:03;99484.50;;;11.40;100.00
52927;BME280;40783;49.710;8.842;2022-10-31T04:43:28;99490.69;;;11.23;100.00
52927;BME280;40783;49.710;8.842;2022-10-31T04:45:53;99489.31;;;11.19;100.00
52927;BME280;40783;49.710;8.842;2022-10-31T04:48:20;99491.63;;;11.13;100.00
52927;BME280;40783;49.710;8.842;2022-10-31T04:50:46;99489.97;;;11.12;100.00
52927;BME280;40783;49.710;8.842;2022-10-31T04:53:15;99490.28;;;11.09;100.00
52927;BME280;40783;49.710;8.842;2022-10-31T04:55:41;99480.31;;;11.02;100.00
52927;BME280;40783;49.710;8.842;2022-10-31T04:58:08;99478.50;;;11.02;100.00
52927;BME280;40783;49.710;8.842;2022-10-31T05:00:33;99482.84;;;11.03;100.00
52927;BME280;40783;49.710;8.842;2022-10-31T05:02:58;99479.25;;;11.12;100.00
52927;BME280;40783;49.710;8.842;2022-10-31T05:05:25;99480.47;;;11.00;100.00
52927;BME280;40783;49.710;8.842;2022-10-31T05:07:51;99484.38;;;11.06;100.00
52927;BME280;40783;49.710;8.842;2022-10-31T05:10:17;99479.19;;;11.04;100.00
52927;BME280;40783;49.710;8.842;2022-10-31T05:13:02;99477.56;;;10.93;100.00
52927;BME280;40783;49.710;8.842;2022-10-31T05:15:30;99483.06;;;10.92;100.00
52927;BME280;40783;49.710;8.842;2022-10-31T05:17:56;99475.34;;;10.89;100.00
52927;BME280;40783;49.710;8.842;2022-10-31T05:20:24;99473.84;;;10.86;100.00
52927;BME280;40783;49.710;8.842;2022-10-31T05:22:50;99482.84;;;10.85;100.00
52927;BME280;40783;49.710;8.842;2022-10-31T05:25:16;99487.25;;;10.76;100.00
52927;BME280;40783;49.710;8.842;2022-10-31T05:27:45;99485.34;;;10.87;100.00
52927;BME280;40783;49.710;8.842;2022-10-31T05:30:12;99483.97;;;10.82;100.00
52927;BME280;40783;49.710;8.842;2022-10-31T05:32:40;99486.97;;;10.79;100.00
52927;BME280;40783;49.710;8.842;2022-10-31T05:35:06;99484.28;;;10.79;100.00
52927;BME280;40783;49.710;8.842;2022-10-31T05:37:33;99486.53;;;10.84;100.00
52927;BME280;40783;49.710;8.842;2022-10-31T05:39:58;99490.22;;;10.73;100.00
52927;BME280;40783;49.710;8.842;2022-10-31T05:42:26;99480.81;;;10.69;100.00
52927;BME280;40783;49.710;8.842;2022-10-31T05:44:51;99480.69;;;10.71;100.00
52927;BME280;40783;49.710;8.842;2022-10-31T05:47:16;99474.78;;;10.67;100.00
52927;BME280;40783;49.710;8.842;2022-10-31T05:49:42;99471.00;;;10.88;100.00
52927;BME280;40783;49.710;8.842;2022-10-31T05:52:09;99473.06;;;10.94;100.00
52927;BME280;40783;49.710;8.842;2022-10-31T05:54:34;99462.56;;;10.82;100.00
52927;BME280;40783;49.710;8.842;2022-10-31T05:56:59;99474.56;;;10.78;100.00
52927;BME280;40783;49.710;8.842;2022-10-31T05:59:24;99468.63;;;10.84;100.00
52927;BME280;40783;49.710;8.842;2022-10-31T06:01:52;99475.13;;;11.00;100.00
52927;BME280;40783;49.710;8.842;2022-10-31T06:04:19;99476.72;;;11.11;100.00
52927;BME280;40783;49.710;8.842;2022-10-31T06:06:45;99475.81;;;11.02;100.00
52927;BME280;40783;49.710;8.842;2022-10-31T06:09:10;99470.38;;;10.94;100.00
52927;BME280;40783;49.710;8.842;2022-10-31T06:11:35;99471.47;;;10.83;100.00
52927;BME280;40783;49.710;8.842;2022-10-31T06:14:00;99473.19;;;10.74;100.00
52927;BME280;40783;49.710;8.842;2022-10-31T06:16:25;99474.19;;;10.73;100.00
52927;BME280;40783;49.710;8.842;2022-10-31T06:18:51;99472.28;;;10.83;100.00
52927;BME280;40783;49.710;8.842;2022-10-31T06:21:18;99470.38;;;10.94;100.00
52927;BME280;40783;49.710;8.842;2022-10-31T06:23:43;99475.66;;;10.86;100.00
52927;BME280;40783;49.710;8.842;2022-10-31T06:26:11;99479.91;;;10.78;100.00
52927;BME280;40783;49.710;8.842;2022-10-31T06:28:36;99477.50;;;10.85;100.00
52927;BME280;40783;49.710;8.842;2022-10-31T06:31:01;99486.25;;;10.77;100.00
52927;BME280;40783;49.710;8.842;2022-10-31T06:33:27;99486.25;;;10.77;100.00
52927;BME280;40783;49.710;8.842;2022-10-31T06:35:52;99484.19;;;10.89;100.00
52927;BME280;40783;49.710;8.842;2022-10-31T06:38:17;99486.44;;;10.94;100.00
52927;BME280;40783;49.710;8.842;2022-10-31T06:40:42;99481.09;;;10.94;100.00
52927;BME280;40783;49.710;8.842;2022-10-31T06:43:07;99477.63;;;10.83;100.00
52927;BME280;40783;49.710;8.842;2022-10-31T06:45:33;99482.16;;;10.83;100.00
52927;BME280;40783;49.710;8.842;2022-10-31T06:48:00;99484.66;;;10.84;100.00
52927;BME280;40783;49.710;8.842;2022-10-31T06:50:26;99481.38;;;10.91;100.00
52927;BME280;40783;49.710;8.842;2022-10-31T06:52:54;99497.13;;;10.94;100.00
52927;BME280;40783;49.710;8.842;2022-10-31T06:55:20;99491.63;;;11.13;100.00
52927;BME280;40783;49.710;8.842;2022-10-31T06:57:54;99487.63;;;11.18;100.00
52927;BME280;40783;49.710;8.842;2022-10-31T07:00:19;99496.66;;;11.17;100.00
52927;BME280;40783;49.710;8.842;2022-10-31T07:05:19;99498.34;;;11.18;100.00
52927;BME280;40783;49.710;8.842;2022-10-31T07:07:44;99497.72;;;11.24;100.00
52927;BME280;40783;49.710;8.842;2022-10-31T07:10:11;99497.13;;;11.30;100.00
52927;BME280;40783;49.710;8.842;2022-10-31T07:12:37;99501.03;;;11.36;100.00
52927;BME280;40783;49.710;8.842;2022-10-31T07:15:02;99504.72;;;11.35;100.00
52927;BME280;40783;49.710;8.842;2022-10-31T07:17:27;99500.88;;;11.37;100.00
52927;BME280;40783;49.710;8.842;2022-10-31T07:19:53;99504.00;;;11.14;100.00
52927;BME280;40783;49.710;8.842;2022-10-31T07:22:18;99499.72;;;10.86;100.00
52927;BME280;40783;49.710;8.842;2022-10-31T07:24:45;99491.50;;;10.97;100.00
52927;BME280;40783;49.710;8.842;2022-10-31T07:27:11;99497.66;;;11.16;100.00
52927;BME280;40783;49.710;8.842;2022-10-31T07:29:36;99497.44;;;11.27;100.00
52927;BME280;40783;49.710;8.842;2022-10-31T07:32:06;99497.56;;;11.43;100.00
52927;BME280;40783;49.710;8.842;2022-10-31T07:34:31;99500.69;;;11.57;100.00
52927;BME280;40783;49.710;8.842;2022-10-31T07:36:59;99499.38;;;11.61;100.00
52927;BME280;40783;49.710;8.842;2022-10-31T07:39:24;99492.50;;;11.58;100.00
52927;BME280;40783;49.710;8.842;2022-10-31T07:41:49;99500.31;;;11.52;100.00
52927;BME280;40783;49.710;8.842;2022-10-31T07:44:17;99496.09;;;11.49;100.00
52927;BME280;40783;49.710;8.842;2022-10-31T07:46:44;99497.72;;;11.60;100.00
52927;BME280;40783;49.710;8.842;2022-10-31T07:49:09;99500.09;;;11.71;100.00
52927;BME280;40783;49.710;8.842;2022-10-31T07:51:34;99504.09;;;11.67;100.00
52927;BME280;40783;49.710;8.842;2022-10-31T07:54:02;99496.03;;;11.59;100.00
52927;BME280;40783;49.710;8.842;2022-10-31T07:56:29;99501.06;;;11.88;100.00
52927;BME280;40783;49.710;8.842;2022-10-31T07:58:57;99505.88;;;11.85;100.00
52927;BME280;40783;49.710;8.842;2022-10-31T08:01:22;99504.22;;;11.84;100.00
52927;BME280;40783;49.710;8.842;2022-10-31T08:03:47;99500.50;;;12.03;100.00
52927;BME280;40783;49.710;8.842;2022-10-31T08:06:12;99506.13;;;12.18;100.00
52927;BME280;40783;49.710;8.842;2022-10-31T08:08:38;99497.06;;;12.19;100.00
52927;BME280;40783;49.710;8.842;2022-10-31T08:11:03;99502.31;;;12.29;100.00
52927;BME280;40783;49.710;8.842;2022-10-31T08:13:28;99495.28;;;12.28;100.00
52927;BME280;40783;49.710;8.842;2022-10-31T08:15:53;99505.19;;;12.36;100.00
52927;BME280;40783;49.710;8.842;2022-10-31T08:18:20;99492.00;;;12.51;100.00
52927;BME280;40783;49.710;8.842;2022-10-31T08:20:48;99484.47;;;12.54;100.00
52927;BME280;40783;49.710;8.842;2022-10-31T08:23:14;99485.03;;;12.74;100.00
52927;BME280;40783;49.710;8.842;2022-10-31T08:25:41;99479.66;;;12.74;100.00
52927;BME280;40783;49.710;8.842;2022-10-31T08:28:08;99480.47;;;12.75;100.00
52927;BME280;40783;49.710;8.842;2022-10-31T08:30:35;99473.47;;;12.90;100.00
52927;BME280;40783;49.710;8.842;2022-10-31T08:33:11;99479.88;;;12.98;100.00
52927;BME280;40783;49.710;8.842;2022-10-31T08:35:37;99477.19;;;13.06;100.00
52927;BME280;40783;49.710;8.842;2022-10-31T08:38:02;99466.94;;;13.10;100.00
52927;BME280;40783;49.710;8.842;2022-10-31T08:40:28;99473.19;;;13.18;100.00
52927;BME280;40783;49.710;8.842;2022-10-31T08:43:01;99463.75;;;13.31;100.00
52927;BME280;40783;49.710;8.842;2022-10-31T08:45:27;99452.34;;;13.37;100.00
52927;BME280;40783;49.710;8.842;2022-10-31T08:47:52;99455.06;;;13.45;100.00
52927;BME280;40783;49.710;8.842;2022-10-31T08:50:23;99445.66;;;13.49;100.00
52927;BME280;40783;49.710;8.842;2022-10-31T08:52:48;99455.88;;;13.54;100.00
52927;BME280;40783;49.710;8.842;2022-10-31T08:55:14;99449.34;;;13.65;100.00
52927;BME280;40783;49.710;8.842;2022-10-31T08:57:39;99441.75;;;13.77;100.00
52927;BME280;40783;49.710;8.842;2022-10-31T09:00:04;99439.84;;;13.86;100.00
52927;BME280;40783;49.710;8.842;2022-10-31T09:02:30;99434.78;;;13.99;100.00
52927;BME280;40783;49.710;8.842;2022-10-31T09:04:55;99437.91;;;14.11;100.00
52927;BME280;40783;49.710;8.842;2022-10-31T09:07:20;99437.72;;;14.21;100.00
52927;BME280;40783;49.710;8.842;2022-10-31T09:09:45;99435.34;;;14.26;100.00
52927;BME280;40783;49.710;8.842;2022-10-31T09:12:13;99427.22;;;14.34;100.00
52927;BME280;40783;49.710;8.842;2022-10-31T09:14:40;99428.50;;;14.47;100.00
52927;BME280;40783;49.710;8.842;2022-10-31T09:17:05;99430.13;;;14.56;100.00
52927;BME280;40783;49.710;8.842;2022-10-31T09:19:31;99429.41;;;14.71;100.00
52927;BME280;40783;49.710;8.842;2022-10-31T09:21:58;99423.97;;;14.79;100.00
52927;BME280;40783;49.710;8.842;2022-10-31T09:24:23;99423.13;;;14.78;100.00
52927;BME280;40783;49.710;8.842;2022-10-31T09:26:49;99425.47;;;14.81;100.00
52927;BME280;40783;49.710;8.842;2022-10-31T09:29:14;99424.84;;;14.94;100.00
52927;BME280;40783;49.710;8.842;2022-10-31T09:31:41;99423.72;;;15.12;100.00
52927;BME280;40783;49.710;8.842;2022-10-31T09:34:09;99418.56;;;15.25;100.00
52927;BME280;40783;49.710;8.842;2022-10-31T09:36:35;99419.69;;;15.46;100.00
52927;BME280;40783;49.710;8.842;2022-10-31T09:39:02;99419.31;;;15.49;100.00
52927;BME280;40783;49.710;8.842;2022-10-31T09:51:36;99424.97;;;15.93;100.00
52927;BME280;40783;49.710;8.842;2022-10-31T09:54:02;99422.44;;;16.06;100.00
52927;BME280;40783;49.710;8.842;2022-10-31T09:56:30;99419.56;;;16.08;100.00
52927;BME280;40783;49.710;8.842;2022-10-31T09:58:59;99418.06;;;16.05;100.00
52927;BME280;40783;49.710;8.842;2022-10-31T10:01:30;99418.44;;;16.02;100.00
52927;BME280;40783;49.710;8.842;2022-10-31T10:04:44;99415.09;;;16.00;100.00
52927;BME280;40783;49.710;8.842;2022-10-31T10:06:43;99411.38;;;16.01;100.00
52927;BME280;40783;49.710;8.842;2022-10-31T10:09:09;99409.34;;;16.03;100.00
52927;BME280;40783;49.710;8.842;2022-10-31T10:17:06;99405.84;;;16.24;100.00
52927;BME280;40783;49.710;8.842;2022-10-31T10:22:12;99407.09;;;16.22;100.00
52927;BME280;40783;49.710;8.842;2022-10-31T10:27:27;99401.75;;;16.28;100.00
52927;BME280;40783;49.710;8.842;2022-10-31T10:29:58;99395.81;;;16.33;100.00
52927;BME280;40783;49.710;8.842;2022-10-31T10:32:30;99399.81;;;16.37;100.00
52927;BME280;40783;49.710;8.842;2022-10-31T10:35:02;99397.81;;;16.46;100.00
52927;BME280;40783;49.710;8.842;2022-10-31T10:37:39;99395.56;;;16.50;100.00
52927;BME280;40783;49.710;8.842;2022-10-31T10:40:19;99393.38;;;16.60;100.00
52927;BME280;40783;49.710;8.842;2022-10-31T10:45:53;99383.28;;;16.90;100.00
52927;BME280;40783;49.710;8.842;2022-10-31T10:48:47;99383.56;;;16.96;100.00
52927;BME280;40783;49.710;8.842;2022-10-31T10:51:20;99370.50;;;16.99;100.00
52927;BME280;40783;49.710;8.842;2022-10-31T10:56:30;99375.09;;;16.99;100.00
52927;BME280;40783;49.710;8.842;2022-10-31T10:58:57;99369.22;;;16.95;100.00
52927;BME280;40783;49.710;8.842;2022-10-31T11:01:25;99365.19;;;17.06;100.00
52927;BME280;40783;49.710;8.842;2022-10-31T11:03:50;99364.31;;;17.05;100.00
52927;BME280;40783;49.710;8.842;2022-10-31T11:06:16;99359.81;;;17.13;100.00
52927;BME280;40783;49.710;8.842;2022-10-31T11:08:42;99360.97;;;17.03;100.00
52927;BME280;40783;49.710;8.842;2022-10-31T11:13:35;99352.63;;;16.98;100.00
52927;BME280;40783;49.710;8.842;2022-10-31T11:19:04;99348.22;;;17.19;100.00
52927;BME280;40783;49.710;8.842;2022-10-31T11:21:30;99343.47;;;17.21;100.00
52927;BME280;40783;49.710;8.842;2022-10-31T11:24:12;99335.75;;;17.18;100.00
52927;BME280;40783;49.710;8.842;2022-10-31T11:26:39;99331.63;;;17.22;100.00
52927;BME280;40783;49.710;8.842;2022-10-31T11:29:25;99321.69;;;17.29;100.00
52927;BME280;40783;49.710;8.842;2022-10-31T11:31:54;99331.31;;;17.39;100.00
52927;BME280;40783;49.710;8.842;2022-10-31T11:34:33;99325.44;;;17.28;100.00
52927;BME280;40783;49.710;8.842;2022-10-31T11:37:04;99314.25;;;17.38;100.00
52927;BME280;40783;49.710;8.842;2022-10-31T11:39:38;99307.44;;;17.49;100.00
52927;BME280;40783;49.710;8.842;2022-10-31T11:42:08;99298.94;;;17.52;100.00
52927;BME280;40783;49.710;8.842;2022-10-31T11:44:33;99301.88;;;17.57;100.00
52927;BME280;40783;49.710;8.842;2022-10-31T11:46:59;99291.28;;;17.62;100.00
52927;BME280;40783;49.710;8.842;2022-10-31T11:51:51;99289.47;;;17.70;100.00
52927;BME280;40783;49.710;8.842;2022-10-31T11:54:31;99287.47;;;17.50;100.00
52927;BME280;40783;49.710;8.842;2022-10-31T11:56:59;99291.50;;;17.61;100.00
52927;BME280;40783;49.710;8.842;2022-10-31T11:59:28;99289.47;;;17.76;100.00
52927;BME280;40783;49.710;8.842;2022-10-31T12:01:55;99285.38;;;17.87;100.00
52927;BME280;40783;49.710;8.842;2022-10-31T12:04:40;99286.22;;;17.94;100.00
52927;BME280;40783;49.710;8.842;2022-10-31T12:07:06;99283.78;;;18.00;100.00
52927;BME280;40783;49.710;8.842;2022-10-31T12:09:34;99275.03;;;18.11;100.00
52927;BME280;40783;49.710;8.842;2022-10-31T12:12:03;99281.31;;;18.12;100.00
52927;BME280;40783;49.710;8.842;2022-10-31T12:17:08;99271.25;;;17.99;100.00
52927;BME280;40783;49.710;8.842;2022-10-31T12:39:55;99249.28;;;18.29;100.00
52927;BME280;40783;49.710;8.842;2022-10-31T12:42:37;99244.28;;;18.26;100.00
52927;BME280;40783;49.710;8.842;2022-10-31T12:53:15;99223.25;;;18.28;100.00
52927;BME280;40783;49.710;8.842;2022-10-31T12:58:20;99215.53;;;18.18;100.00
52927;BME280;40783;49.710;8.842;2022-10-31T13:00:47;99212.59;;;18.19;100.00
52927;BME280;40783;49.710;8.842;2022-10-31T13:03:33;99215.94;;;18.15;100.00
52927;BME280;40783;49.710;8.842;2022-10-31T13:06:05;99209.69;;;18.07;100.00
52927;BME280;40783;49.710;8.842;2022-10-31T13:08:36;99206.78;;;18.16;100.00
52927;BME280;40783;49.710;8.842;2022-10-31T13:13:53;99205.25;;;17.86;100.00
52927;BME280;40783;49.710;8.842;2022-10-31T13:16:20;99196.72;;;17.89;100.00
52927;BME280;40783;49.710;8.842;2022-10-31T13:18:49;99199.00;;;17.86;100.00
52927;BME280;40783;49.710;8.842;2022-10-31T13:21:18;99197.53;;;17.83;100.00
52927;BME280;40783;49.710;8.842;2022-10-31T13:23:45;99200.25;;;17.90;100.00
52927;BME280;40783;49.710;8.842;2022-10-31T13:26:13;99202.13;;;17.89;100.00
52927;BME280;40783;49.710;8.842;2022-10-31T13:31:08;99194.63;;;17.78;100.00
52927;BME280;40783;49.710;8.842;2022-10-31T13:33:34;99182.53;;;17.80;100.00
52927;BME280;40783;49.710;8.842;2022-10-31T13:41:15;99162.34;;;17.70;100.00
52927;BME280;40783;49.710;8.842;2022-10-31T13:46:34;99160.94;;;17.87;100.00
52927;BME280;40783;49.710;8.842;2022-10-31T13:49:02;99157.41;;;17.93;100.00
52927;BME280;40783;49.710;8.842;2022-10-31T13:51:29;99160.94;;;17.87;100.00
52927;BME280;40783;49.710;8.842;2022-10-31T13:56:28;99144.69;;;17.74;100.00
52927;BME280;40783;49.710;8.842;2022-10-31T13:59:02;99135.88;;;17.45;100.00
52927;BME280;40783;49.710;8.842;2022-10-31T14:01:31;99130.50;;;17.52;100.00
52927;BME280;40783;49.710;8.842;2022-10-31T14:06:34;99129.22;;;17.54;100.00
52927;BME280;40783;49.710;8.842;2022-10-31T14:09:01;99135.03;;;17.51;100.00
52927;BME280;40783;49.710;8.842;2022-10-31T14:11:28;99132.91;;;17.33;100.00
52927;BME280;40783;49.710;8.842;2022-10-31T14:13:56;99136.66;;;17.32;100.00
52927;BME280;40783;49.710;8.842;2022-10-31T14:18:48;99124.66;;;17.55;100.00
52927;BME280;40783;49.710;8.842;2022-10-31T14:23:55;99121.78;;;17.70;100.00
52927;BME280;40783;49.710;8.842;2022-10-31T14:29:02;99132.81;;;17.75;100.00
52927;BME280;40783;49.710;8.842;2022-10-31T14:31:39;99140.94;;;17.68;100.00
52927;BME280;40783;49.710;8.842;2022-10-31T14:34:17;99141.53;;;17.63;100.00
52927;BME280;40783;49.710;8.842;2022-10-31T14:36:50;99135.50;;;17.61;100.00
52927;BME280;40783;49.710;8.842;2022-10-31T14:47:48;99132.09;;;17.39;100.00
52927;BME280;40783;49.710;8.842;2022-10-31T14:52:50;99132.72;;;17.34;100.00
52927;BME280;40783;49.710;8.842;2022-10-31T14:55:16;99115.47;;;17.35;100.00
52927;BME280;40783;49.710;8.842;2022-10-31T14:57:46;99125.44;;;17.35;100.00
52927;BME280;40783;49.710;8.842;2022-10-31T15:00:17;99127.97;;;17.37;100.00
52927;BME280;40783;49.710;8.842;2022-10-31T15:02:50;99133.72;;;17.20;100.00
52927;BME280;40783;49.710;8.842;2022-10-31T15:05:24;99131.19;;;17.12;100.00
52927;BME280;40783;49.710;8.842;2022-10-31T15:07:51;99124.91;;;17.04;100.00
52927;BME280;40783;49.710;8.842;2022-10-31T15:10:21;99129.91;;;17.08;100.00
52927;BME280;40783;49.710;8.842;2022-10-31T15:12:46;99127.31;;;16.92;100.00